Port Dover, Canada
Current Conditions -  °F | °C
As of 2:44 PM on Thursday 27 Nov 2014 (Local Time) from CYHM Reporting Station
Snow Showers Snow Showers  
Wind Chill: 27°   Ceiling: 2500
Heat Index: 34°   Visibility: 10mi
Dew Point: 27°   Wind: 8mph
Humidity: 75%   Direction: 280°W
Pressure: 30.04"   Gusts: NA
Location:  42.78°N, 80.2°W
Report Text: CYHM 271944Z 28007KT 10SM -SHSN FEW017 BKN025 OVC072 01/M03 A3004 RMK CU2SC3AC3 SLP181
Loading
Personal Weather Stations






























Interactive Weather Map New forecast layout! Learn more

10-Day Weather Forecast

Advertisements
Track Severe Weather on mobile